Time;durP1;ratioP1;P1;durP2;ratioP2;P2;SDS_P1;SDS_P2;PMS_P1;PMS_P2;Temp;Humidity;BMP_temperature;BMP_pressure;BME280_temperature;BME280_humidity;BME280_pressure;Samples;Min_cycle;Max_cycle;Signal;HPM_P1;HPM_P2
2022/11/15 00:01:40;;;;;;;29.17;16.45;;;;;;;;;;5053183;28;20045;-81
2022/11/15 00:04:10;;;;;;;28.30;15.88;;;;;;;;;;5053489;28;20044;-81
2022/11/15 00:06:36;;;;;;;28.35;16.02;;;;;;;;;;5039860;28;20037;-75
2022/11/15 00:09:02;;;;;;;29.17;16.35;;;;;;;;;;5054034;28;20131;-80
2022/11/15 00:11:29;;;;;;;32.72;17.52;;;;;;;;;;5054084;28;20047;-81
2022/11/15 00:13:56;;;;;;;27.67;15.98;;;;;;;;;;5053584;28;20081;-81
2022/11/15 00:16:22;;;;;;;31.63;17.42;;;;;;;;;;5053851;28;20049;-81
2022/11/15 00:18:48;;;;;;;30.20;18.05;;;;;;;;;;5052506;28;20120;-81
2022/11/15 00:21:15;;;;;;;33.38;19.63;;;;;;;;;;5035760;28;20083;-81
2022/11/15 00:23:41;;;;;;;32.78;18.77;;;;;;;;;;5052468;28;20090;-74
2022/11/15 00:26:08;;;;;;;34.50;19.88;;;;;;;;;;5053710;28;20482;-74
2022/11/15 00:28:34;;;;;;;36.67;20.20;;;;;;;;;;5053512;28;20179;-74
2022/11/15 00:31:07;;;;;;;37.33;21.13;;;;;;;;;;5036018;28;20044;-81
2022/11/15 00:33:34;;;;;;;35.25;20.15;;;;;;;;;;5053887;28;20077;-81
2022/11/15 00:36:01;;;;;;;37.17;21.30;;;;;;;;;;5052411;28;20505;-80
2022/11/15 00:38:30;;;;;;;39.45;21.35;;;;;;;;;;5053914;28;20041;-81
2022/11/15 00:40:56;;;;;;;38.55;21.23;;;;;;;;;;5038078;28;20493;-81
2022/11/15 00:43:22;;;;;;;37.33;21.80;;;;;;;;;;5053582;28;20486;-74
2022/11/15 00:45:48;;;;;;;35.83;21.08;;;;;;;;;;5048495;28;20041;-74
2022/11/15 00:48:14;;;;;;;37.22;21.60;;;;;;;;;;5042907;28;20044;-75
2022/11/15 00:50:41;;;;;;;38.75;21.02;;;;;;;;;;5035394;28;20049;-75
2022/11/15 00:53:07;;;;;;;37.40;20.10;;;;;;;;;;5053128;28;20037;-81
2022/11/15 00:55:33;;;;;;;37.53;20.63;;;;;;;;;;5053216;28;20037;-81
2022/11/15 00:57:59;;;;;;;37.00;18.85;;;;;;;;;;5053057;28;20477;-82
2022/11/15 01:00:25;;;;;;;37.00;19.55;;;;;;;;;;5053220;28;20397;-80
2022/11/15 01:02:51;;;;;;;37.83;19.73;;;;;;;;;;5051973;28;20033;-81
2022/11/15 01:05:17;;;;;;;34.67;18.13;;;;;;;;;;5051428;28;20083;-81
2022/11/15 01:07:43;;;;;;;38.00;21.20;;;;;;;;;;5050982;28;20045;-81
2022/11/15 01:10:09;;;;;;;36.85;18.27;;;;;;;;;;5039533;28;20048;-81
2022/11/15 01:12:36;;;;;;;37.10;18.17;;;;;;;;;;5053264;28;20040;-81
2022/11/15 01:15:02;;;;;;;37.35;18.55;;;;;;;;;;5034254;28;20056;-75
2022/11/15 01:17:28;;;;;;;35.40;18.42;;;;;;;;;;5051633;28;20095;-75
2022/11/15 01:19:54;;;;;;;33.15;16.90;;;;;;;;;;5051271;28;20045;-75
2022/11/15 01:22:21;;;;;;;32.50;17.17;;;;;;;;;;5051322;28;20478;-75
2022/11/15 01:24:47;;;;;;;33.35;17.20;;;;;;;;;;5052622;28;20043;-75
2022/11/15 01:27:13;;;;;;;34.80;17.75;;;;;;;;;;5052321;28;20485;-75
2022/11/15 01:29:39;;;;;;;32.80;16.50;;;;;;;;;;5051554;28;20450;-75
2022/11/15 01:32:05;;;;;;;30.95;16.90;;;;;;;;;;5050921;28;20045;-75
2022/11/15 01:34:31;;;;;;;31.13;16.70;;;;;;;;;;5035046;28;20474;-75
2022/11/15 01:36:57;;;;;;;33.97;17.05;;;;;;;;;;5051046;28;20044;-74
2022/11/15 01:39:23;;;;;;;35.92;18.05;;;;;;;;;;5052038;28;20045;-74
2022/11/15 01:41:49;;;;;;;35.55;17.85;;;;;;;;;;5052345;28;20068;-74
2022/11/15 01:44:34;;;;;;;38.80;18.60;;;;;;;;;;5050761;28;20041;-75
2022/11/15 01:47:02;;;;;;;38.65;18.08;;;;;;;;;;5050903;28;20123;-74
2022/11/15 01:49:30;;;;;;;43.72;19.95;;;;;;;;;;5051148;28;20048;-81
2022/11/15 01:51:57;;;;;;;43.63;20.02;;;;;;;;;;5052469;28;20120;-81
2022/11/15 01:54:24;;;;;;;39.95;19.20;;;;;;;;;;5033983;28;20056;-81
2022/11/15 01:57:01;;;;;;;39.97;19.50;;;;;;;;;;5035034;28;20501;-81
2022/11/15 01:59:27;;;;;;;38.40;19.08;;;;;;;;;;5046921;28;20418;-81
2022/11/15 02:01:53;;;;;;;44.20;20.05;;;;;;;;;;5041091;28;20041;-81
2022/11/15 02:04:23;;;;;;;43.13;19.08;;;;;;;;;;5050036;28;20163;-82
2022/11/15 02:06:49;;;;;;;41.17;19.05;;;;;;;;;;5023358;28;20114;-81
2022/11/15 02:09:16;;;;;;;44.70;20.42;;;;;;;;;;5052032;28;20048;-81
2022/11/15 02:11:42;;;;;;;42.60;20.60;;;;;;;;;;5051585;28;20049;-74
2022/11/15 02:14:09;;;;;;;41.80;19.67;;;;;;;;;;5050484;28;20091;-75
2022/11/15 02:16:50;;;;;;;44.35;21.08;;;;;;;;;;5050362;28;20409;-81
2022/11/15 02:19:32;;;;;;;42.92;19.92;;;;;;;;;;5050565;28;20171;-74
2022/11/15 02:21:58;;;;;;;44.53;20.10;;;;;;;;;;5034365;28;20466;-74
2022/11/15 02:24:30;;;;;;;49.85;20.50;;;;;;;;;;5050710;28;20091;-75
2022/11/15 02:27:02;;;;;;;44.33;21.02;;;;;;;;;;5050398;28;20041;-75
2022/11/15 02:29:48;;;;;;;49.30;21.67;;;;;;;;;;5050250;28;20073;-75
2022/11/15 02:32:41;;;;;;;45.25;21.00;;;;;;;;;;5013778;28;20049;-75
2022/11/15 02:35:13;;;;;;;49.35;21.42;;;;;;;;;;5015955;28;20518;-75
2022/11/15 02:37:59;;;;;;;45.60;20.70;;;;;;;;;;5053660;28;20075;-75
2022/11/15 02:40:28;;;;;;;49.63;21.38;;;;;;;;;;5050191;28;20182;-74
2022/11/15 02:45:43;;;;;;;49.58;21.42;;;;;;;;;;5050607;28;20083;-74
2022/11/15 02:48:09;;;;;;;57.30;23.50;;;;;;;;;;5051674;28;20041;-74
2022/11/15 02:50:36;;;;;;;53.08;22.60;;;;;;;;;;5050401;28;20033;-74
2022/11/15 02:53:02;;;;;;;58.13;23.38;;;;;;;;;;5050241;28;20040;-81
2022/11/15 02:55:39;;;;;;;63.33;23.33;;;;;;;;;;5050174;28;20063;-74
2022/11/15 02:58:20;;;;;;;55.58;22.40;;;;;;;;;;5037008;28;20044;-81
2022/11/15 03:00:51;;;;;;;61.53;23.83;;;;;;;;;;5048389;28;20652;-75
2022/11/15 03:03:28;;;;;;;71.40;25.33;;;;;;;;;;5057774;28;20398;-75
2022/11/15 03:06:02;;;;;;;62.92;23.38;;;;;;;;;;5045565;28;20091;-75
2022/11/15 03:08:28;;;;;;;66.30;23.63;;;;;;;;;;5085339;28;20179;-75
2022/11/15 03:11:07;;;;;;;74.43;24.50;;;;;;;;;;5055677;28;20045;-81
2022/11/15 03:13:51;;;;;;;76.25;23.80;;;;;;;;;;5055356;28;20036;-81
2022/11/15 03:16:36;;;;;;;72.03;24.40;;;;;;;;;;5051377;28;20110;-75
2022/11/15 03:19:11;;;;;;;70.20;25.17;;;;;;;;;;5044962;28;20053;-75
2022/11/15 03:21:38;;;;;;;79.63;25.48;;;;;;;;;;5053868;28;20047;-75
2022/11/15 03:24:06;;;;;;;73.20;25.42;;;;;;;;;;5054326;28;20124;-74
2022/11/15 03:26:33;;;;;;;79.88;26.10;;;;;;;;;;5037077;28;20045;-75
2022/11/15 03:29:01;;;;;;;85.72;26.15;;;;;;;;;;5055237;28;20520;-80
2022/11/15 03:31:47;;;;;;;78.40;25.05;;;;;;;;;;5053708;28;20045;-80
2022/11/15 03:34:23;;;;;;;82.50;24.45;;;;;;;;;;5053970;28;20041;-78
2022/11/15 03:36:49;;;;;;;72.70;23.20;;;;;;;;;;5053866;28;20041;-78
2022/11/15 03:39:16;;;;;;;75.55;25.27;;;;;;;;;;5045821;28;20048;-78
2022/11/15 03:41:47;;;;;;;88.53;26.35;;;;;;;;;;5049732;28;20171;-78
2022/11/15 03:44:17;;;;;;;78.30;26.08;;;;;;;;;;5054043;28;20037;-79
2022/11/15 03:47:03;;;;;;;75.32;25.55;;;;;;;;;;5055230;28;20482;-79
2022/11/15 03:49:31;;;;;;;78.68;25.58;;;;;;;;;;5044857;28;20497;-79
2022/11/15 03:51:58;;;;;;;75.47;25.85;;;;;;;;;;5053740;28;20128;-74
2022/11/15 03:54:24;;;;;;;84.45;27.55;;;;;;;;;;5053439;28;20489;-75
2022/11/15 03:56:50;;;;;;;75.60;26.70;;;;;;;;;;5059220;28;20567;-79
2022/11/15 03:59:17;;;;;;;80.10;26.70;;;;;;;;;;5043361;28;20486;-79
2022/11/15 04:01:43;;;;;;;81.13;26.77;;;;;;;;;;5055107;28;20041;-79
2022/11/15 04:04:09;;;;;;;83.50;26.95;;;;;;;;;;5054683;28;20099;-74
2022/11/15 04:06:35;;;;;;;76.65;26.77;;;;;;;;;;5052914;28;20045;-74
2022/11/15 04:09:01;;;;;;;76.13;26.80;;;;;;;;;;5054382;28;20056;-79
2022/11/15 04:11:27;;;;;;;82.15;28.02;;;;;;;;;;5054999;28;20043;-75
2022/11/15 04:13:53;;;;;;;82.35;27.80;;;;;;;;;;5053632;28;20041;-79
2022/11/15 04:16:19;;;;;;;80.88;28.75;;;;;;;;;;5053258;28;20509;-79
2022/11/15 04:24:11;;;;;;;79.28;28.38;;;;;;;;;;5054613;28;20478;-78
2022/11/15 04:24:16;;;;;;;82.35;26.98;;;;;;;;;;5053143;28;20394;-74
2022/11/15 04:26:42;;;;;;;84.45;29.45;;;;;;;;;;5052467;28;20098;-74
2022/11/15 04:31:53;;;;;;;94.13;30.15;;;;;;;;;;5040049;28;20052;-80
2022/11/15 04:34:19;;;;;;;104.05;31.02;;;;;;;;;;5036149;28;20052;-73
2022/11/15 04:39:29;;;;;;;111.82;33.15;;;;;;;;;;5052162;28;20053;-75
2022/11/15 04:41:55;;;;;;;104.20;32.38;;;;;;;;;;5035758;28;20032;-75
2022/11/15 04:44:21;;;;;;;110.10;36.20;;;;;;;;;;5035819;28;20048;-75
2022/11/15 04:46:47;;;;;;;110.68;34.72;;;;;;;;;;5052017;28;20029;-75
2022/11/15 04:49:14;;;;;;;97.38;32.65;;;;;;;;;;5052178;28;20056;-75
2022/11/15 04:51:40;;;;;;;96.63;32.47;;;;;;;;;;5051917;28;20134;-75
2022/11/15 04:54:06;;;;;;;105.25;35.03;;;;;;;;;;5044366;28;20046;-75
2022/11/15 04:56:32;;;;;;;100.88;31.45;;;;;;;;;;5042851;28;20426;-75
2022/11/15 04:58:58;;;;;;;109.70;34.83;;;;;;;;;;5085369;28;20120;-75
2022/11/15 05:01:24;;;;;;;112.07;34.83;;;;;;;;;;5047824;28;20033;-75
2022/11/15 05:06:35;;;;;;;124.28;36.35;;;;;;;;;;5051335;28;20131;-75
2022/11/15 05:09:01;;;;;;;125.03;36.80;;;;;;;;;;5051849;28;20185;-75
2022/11/15 05:11:27;;;;;;;111.18;36.33;;;;;;;;;;5052167;28;20045;-75
2022/11/15 05:13:53;;;;;;;130.98;39.00;;;;;;;;;;5051496;28;20048;-75
2022/11/15 05:16:19;;;;;;;114.95;34.95;;;;;;;;;;5051596;28;20132;-75
2022/11/15 05:18:45;;;;;;;131.35;38.28;;;;;;;;;;5051288;28;20056;-75
2022/11/15 05:21:13;;;;;;;125.90;36.28;;;;;;;;;;5051843;28;20306;-75
2022/11/15 05:23:39;;;;;;;123.18;36.78;;;;;;;;;;5051324;28;20047;-76
2022/11/15 05:26:06;;;;;;;122.50;37.63;;;;;;;;;;5051632;28;20044;-75
2022/11/15 05:28:33;;;;;;;131.88;38.25;;;;;;;;;;5050617;28;20045;-76
2022/11/15 05:31:16;;;;;;;137.82;38.17;;;;;;;;;;5052936;28;20068;-76
2022/11/15 05:33:43;;;;;;;123.15;37.97;;;;;;;;;;5039398;28;20102;-76
2022/11/15 05:36:15;;;;;;;116.32;36.63;;;;;;;;;;5051242;28;20079;-76
2022/11/15 05:38:42;;;;;;;130.60;38.45;;;;;;;;;;5051130;28;20087;-76
2022/11/15 05:41:08;;;;;;;134.07;39.05;;;;;;;;;;5051473;28;20048;-76
2022/11/15 05:43:36;;;;;;;134.93;40.72;;;;;;;;;;5034451;28;20048;-76
2022/11/15 05:46:02;;;;;;;138.23;38.92;;;;;;;;;;5051444;28;20049;-74
2022/11/15 05:48:29;;;;;;;129.20;35.95;;;;;;;;;;5051204;28;20045;-75
2022/11/15 05:50:55;;;;;;;131.63;40.15;;;;;;;;;;5051359;28;20044;-76
2022/11/15 05:53:23;;;;;;;124.78;37.58;;;;;;;;;;5052465;28;20040;-76
2022/11/15 05:55:49;;;;;;;118.07;35.92;;;;;;;;;;5051412;28;20509;-80
2022/11/15 05:58:15;;;;;;;120.97;37.40;;;;;;;;;;5051123;28;20069;-75
2022/11/15 06:00:43;;;;;;;121.63;38.20;;;;;;;;;;5052203;28;20047;-76
2022/11/15 06:03:09;;;;;;;129.23;38.25;;;;;;;;;;5052745;28;20119;-76
2022/11/15 06:05:35;;;;;;;116.38;37.75;;;;;;;;;;5047825;28;20037;-74
2022/11/15 06:08:01;;;;;;;130.10;38.75;;;;;;;;;;5024999;28;20041;-75
2022/11/15 06:10:27;;;;;;;119.97;37.95;;;;;;;;;;5052287;28;20403;-75
2022/11/15 06:13:00;;;;;;;118.75;38.08;;;;;;;;;;5042682;28;20128;-75
2022/11/15 06:15:26;;;;;;;120.85;38.75;;;;;;;;;;5047461;28;20061;-75
2022/11/15 06:17:57;;;;;;;108.07;35.33;;;;;;;;;;5051901;28;20410;-75
2022/11/15 06:20:23;;;;;;;108.50;35.42;;;;;;;;;;5052418;28;20052;-75
2022/11/15 06:22:49;;;;;;;105.40;35.28;;;;;;;;;;5050403;28;20045;-76
2022/11/15 06:25:15;;;;;;;109.90;36.92;;;;;;;;;;5051051;28;20079;-75
2022/11/15 06:27:41;;;;;;;106.32;36.33;;;;;;;;;;5051827;28;20041;-76
2022/11/15 06:30:07;;;;;;;102.95;33.95;;;;;;;;;;5050847;28;20041;-80
2022/11/15 06:32:33;;;;;;;91.95;35.10;;;;;;;;;;5052268;28;20087;-76
2022/11/15 06:34:59;;;;;;;102.05;34.05;;;;;;;;;;5034064;28;20271;-79
2022/11/15 06:37:25;;;;;;;99.32;34.92;;;;;;;;;;5050997;28;20120;-80
2022/11/15 06:39:51;;;;;;;94.22;32.40;;;;;;;;;;5051341;28;20048;-79
2022/11/15 06:42:18;;;;;;;90.85;33.17;;;;;;;;;;5054870;28;20048;-80
2022/11/15 06:44:44;;;;;;;92.55;33.65;;;;;;;;;;5040638;28;20043;-80
2022/11/15 06:47:10;;;;;;;92.22;34.38;;;;;;;;;;5054742;28;20083;-80
2022/11/15 06:49:36;;;;;;;89.07;33.20;;;;;;;;;;5038106;28;20091;-79
2022/11/15 06:52:02;;;;;;;95.15;34.22;;;;;;;;;;5055589;28;20249;-80
2022/11/15 06:54:28;;;;;;;82.13;31.98;;;;;;;;;;5054831;28;20045;-76
2022/11/15 06:56:54;;;;;;;89.10;32.75;;;;;;;;;;5054663;28;20522;-80
2022/11/15 06:59:20;;;;;;;95.22;32.97;;;;;;;;;;5054723;28;20497;-79
2022/11/15 07:01:46;;;;;;;87.97;34.78;;;;;;;;;;5054821;28;20536;-80
2022/11/15 07:04:12;;;;;;;87.97;33.08;;;;;;;;;;5055933;28;20519;-80
2022/11/15 07:06:38;;;;;;;82.47;31.35;;;;;;;;;;5055700;28;20512;-79
2022/11/15 07:09:04;;;;;;;86.22;32.78;;;;;;;;;;5054415;28;20503;-80
2022/11/15 07:11:30;;;;;;;77.53;32.65;;;;;;;;;;5054455;28;20055;-78
2022/11/15 07:13:56;;;;;;;92.93;33.70;;;;;;;;;;5054148;28;20032;-80
2022/11/15 07:16:22;;;;;;;81.75;32.15;;;;;;;;;;5055385;28;20480;-80
2022/11/15 07:18:48;;;;;;;76.88;31.30;;;;;;;;;;5054339;28;20132;-80
2022/11/15 07:21:14;;;;;;;79.47;31.25;;;;;;;;;;5051192;28;20377;-80
2022/11/15 07:23:41;;;;;;;82.22;33.60;;;;;;;;;;5043771;28;20041;-80
2022/11/15 07:26:07;;;;;;;77.18;31.35;;;;;;;;;;5039845;28;20044;-79
2022/11/15 07:28:33;;;;;;;85.57;32.00;;;;;;;;;;5055656;28;20040;-79
2022/11/15 07:31:02;;;;;;;70.63;31.30;;;;;;;;;;5054158;28;20045;-79
2022/11/15 07:33:28;;;;;;;72.13;31.55;;;;;;;;;;5040563;28;20075;-80
2022/11/15 07:35:54;;;;;;;69.68;30.15;;;;;;;;;;5055273;28;20041;-79
2022/11/15 07:38:20;;;;;;;70.18;30.92;;;;;;;;;;5068368;28;20098;-80
2022/11/15 07:40:47;;;;;;;73.22;31.10;;;;;;;;;;5054108;28;20037;-80
2022/11/15 07:43:13;;;;;;;73.35;32.05;;;;;;;;;;5053890;28;20097;-80
2022/11/15 07:45:46;;;;;;;73.72;31.63;;;;;;;;;;5055263;28;20044;-80
2022/11/15 07:48:12;;;;;;;75.28;32.42;;;;;;;;;;5054238;28;20051;-79
2022/11/15 07:50:42;;;;;;;71.68;31.13;;;;;;;;;;5055300;28;20486;-79
2022/11/15 07:53:08;;;;;;;64.32;28.98;;;;;;;;;;5053795;28;20114;-79
2022/11/15 07:55:34;;;;;;;65.93;29.70;;;;;;;;;;5039631;28;20041;-75
2022/11/15 07:58:01;;;;;;;71.22;31.05;;;;;;;;;;5053363;28;20048;-75
2022/11/15 08:00:27;;;;;;;70.25;30.77;;;;;;;;;;5053140;28;20045;-75
2022/11/15 08:02:53;;;;;;;63.10;29.83;;;;;;;;;;5037212;28;20047;-79
2022/11/15 08:05:19;;;;;;;63.67;28.73;;;;;;;;;;5051615;28;20095;-79
2022/11/15 08:07:45;;;;;;;65.28;29.23;;;;;;;;;;5033574;28;20119;-80
2022/11/15 08:10:11;;;;;;;62.13;29.35;;;;;;;;;;5028471;28;20068;-79
2022/11/15 08:12:37;;;;;;;67.65;29.55;;;;;;;;;;5048210;28;20087;-79
2022/11/15 08:15:05;;;;;;;65.50;28.55;;;;;;;;;;5056283;28;20642;-79
2022/11/15 08:17:32;;;;;;;63.75;29.80;;;;;;;;;;5059474;28;20127;-79
2022/11/15 08:19:58;;;;;;;61.08;30.10;;;;;;;;;;5054583;28;20055;-80
2022/11/15 08:22:24;;;;;;;59.00;29.20;;;;;;;;;;5054481;28;20163;-75
2022/11/15 08:24:50;;;;;;;58.55;27.95;;;;;;;;;;5036231;28;20037;-75
2022/11/15 08:27:16;;;;;;;56.97;28.52;;;;;;;;;;5052668;28;20073;-75
2022/11/15 08:29:46;;;;;;;58.72;28.33;;;;;;;;;;5052777;28;20037;-75
2022/11/15 08:32:12;;;;;;;59.83;28.33;;;;;;;;;;5052691;28;20052;-75
2022/11/15 08:34:38;;;;;;;52.10;26.85;;;;;;;;;;5052793;28;20045;-75
2022/11/15 08:37:05;;;;;;;53.05;26.95;;;;;;;;;;5052809;28;20573;-75
2022/11/15 08:39:31;;;;;;;49.95;25.13;;;;;;;;;;5036242;28;20091;-75
2022/11/15 08:41:57;;;;;;;50.83;25.08;;;;;;;;;;5052393;28;20032;-75
2022/11/15 08:44:23;;;;;;;50.90;25.95;;;;;;;;;;5054009;28;20402;-73
2022/11/15 08:46:50;;;;;;;47.65;25.02;;;;;;;;;;5052582;28;20120;-75
2022/11/15 08:49:16;;;;;;;46.83;23.95;;;;;;;;;;5052213;28;20041;-80
2022/11/15 08:51:42;;;;;;;43.53;24.45;;;;;;;;;;5054867;28;20041;-80
2022/11/15 08:54:09;;;;;;;46.95;25.67;;;;;;;;;;5055563;28;20045;-80
2022/11/15 08:56:35;;;;;;;47.70;24.75;;;;;;;;;;5043186;28;20512;-80
2022/11/15 08:59:01;;;;;;;47.83;24.80;;;;;;;;;;5055539;28;20462;-80
2022/11/15 09:01:27;;;;;;;49.92;25.55;;;;;;;;;;5055601;28;20202;-80
2022/11/15 09:03:53;;;;;;;46.03;25.70;;;;;;;;;;5053641;28;20040;-74
2022/11/15 09:06:19;;;;;;;44.20;23.52;;;;;;;;;;5054073;28;20114;-74
2022/11/15 09:08:45;;;;;;;46.30;24.08;;;;;;;;;;5053895;28;20033;-75
2022/11/15 09:11:12;;;;;;;43.92;23.80;;;;;;;;;;5052210;28;20187;-76
2022/11/15 09:13:38;;;;;;;41.72;24.02;;;;;;;;;;5052263;28;20398;-75
2022/11/15 09:16:04;;;;;;;45.75;23.48;;;;;;;;;;5051587;28;20537;-74
2022/11/15 09:18:30;;;;;;;41.25;24.20;;;;;;;;;;5052102;28;20383;-74
2022/11/15 09:20:57;;;;;;;39.83;23.20;;;;;;;;;;5053021;28;20033;-74
2022/11/15 09:23:23;;;;;;;42.10;23.92;;;;;;;;;;5051932;28;20037;-75
2022/11/15 09:25:50;;;;;;;38.53;22.13;;;;;;;;;;5053253;28;20478;-74
2022/11/15 09:28:16;;;;;;;41.97;24.00;;;;;;;;;;5035016;28;20121;-74
2022/11/15 09:30:42;;;;;;;41.33;23.42;;;;;;;;;;5051899;28;20525;-74
2022/11/15 09:33:09;;;;;;;41.08;22.45;;;;;;;;;;5051360;28;20052;-75
2022/11/15 09:35:35;;;;;;;38.13;22.27;;;;;;;;;;5052219;28;20051;-75
2022/11/15 09:38:01;;;;;;;38.95;22.55;;;;;;;;;;5051453;28;20087;-75
2022/11/15 09:40:27;;;;;;;38.63;23.25;;;;;;;;;;5052721;28;20045;-75
2022/11/15 09:43:09;;;;;;;39.20;23.17;;;;;;;;;;5051974;28;20037;-76
2022/11/15 09:45:37;;;;;;;37.42;21.75;;;;;;;;;;5019586;28;20077;-75
2022/11/15 09:48:14;;;;;;;37.95;22.48;;;;;;;;;;5046298;28;20037;-80
2022/11/15 09:50:46;;;;;;;42.00;22.88;;;;;;;;;;5035582;28;20128;-79
2022/11/15 09:53:14;;;;;;;41.40;23.75;;;;;;;;;;5052128;28;20099;-80
2022/11/15 09:55:49;;;;;;;38.92;21.83;;;;;;;;;;5052597;28;20093;-80
2022/11/15 09:58:26;;;;;;;37.17;21.73;;;;;;;;;;5052738;28;20087;-80
2022/11/15 10:00:53;;;;;;;33.22;20.10;;;;;;;;;;5041899;28;20037;-75
2022/11/15 10:03:34;;;;;;;28.35;19.88;;;;;;;;;;5051391;28;20053;-75
2022/11/15 10:06:05;;;;;;;32.90;20.10;;;;;;;;;;5040910;28;20040;-74
2022/11/15 10:08:40;;;;;;;31.38;19.17;;;;;;;;;;5050593;28;20085;-74
2022/11/15 10:11:16;;;;;;;32.43;19.13;;;;;;;;;;5032765;28;20490;-74
2022/11/15 10:13:45;;;;;;;26.88;17.65;;;;;;;;;;5029568;28;20302;-74
2022/11/15 10:16:30;;;;;;;29.42;19.02;;;;;;;;;;5050317;28;20052;-74
2022/11/15 10:19:15;;;;;;;27.33;17.92;;;;;;;;;;5051055;28;20045;-74
2022/11/15 10:21:41;;;;;;;28.45;17.08;;;;;;;;;;5038078;28;20037;-75
2022/11/15 10:24:16;;;;;;;28.88;16.80;;;;;;;;;;5051171;28;20095;-80
2022/11/15 10:26:49;;;;;;;26.67;16.42;;;;;;;;;;5045355;28;20049;-79
2022/11/15 10:29:19;;;;;;;25.65;15.50;;;;;;;;;;5045019;28;20105;-80
2022/11/15 10:31:45;;;;;;;26.10;16.55;;;;;;;;;;5052410;28;20549;-80
2022/11/15 10:34:11;;;;;;;23.67;16.48;;;;;;;;;;5051753;28;20060;-80
2022/11/15 10:36:37;;;;;;;25.42;15.15;;;;;;;;;;5052405;28;20072;-80
2022/11/15 10:39:03;;;;;;;21.20;14.00;;;;;;;;;;5051321;28;20048;-75
2022/11/15 10:41:34;;;;;;;23.83;14.45;;;;;;;;;;5048998;28;20490;-74
2022/11/15 10:44:03;;;;;;;22.40;13.80;;;;;;;;;;5039471;28;20052;-75
2022/11/15 10:46:29;;;;;;;19.15;13.02;;;;;;;;;;5051033;28;20037;-75
2022/11/15 10:49:12;;;;;;;21.92;13.95;;;;;;;;;;5051014;28;20053;-80
2022/11/15 10:51:42;;;;;;;21.00;13.88;;;;;;;;;;5051254;28;20048;-80
2022/11/15 10:54:11;;;;;;;18.38;12.15;;;;;;;;;;5051356;28;20053;-80
2022/11/15 10:56:37;;;;;;;21.88;12.50;;;;;;;;;;5051610;28;20091;-78
2022/11/15 10:59:03;;;;;;;18.85;11.27;;;;;;;;;;5051405;28;20036;-80
2022/11/15 11:01:30;;;;;;;19.05;11.48;;;;;;;;;;5053067;28;20037;-78
2022/11/15 11:04:06;;;;;;;16.92;11.32;;;;;;;;;;5052246;28;20033;-74
2022/11/15 11:06:52;;;;;;;16.20;11.30;;;;;;;;;;5050510;28;20068;-74
2022/11/15 11:09:22;;;;;;;15.57;10.07;;;;;;;;;;5040229;28;20071;-75
2022/11/15 11:11:49;;;;;;;18.08;10.75;;;;;;;;;;5050752;28;20127;-75
2022/11/15 11:14:30;;;;;;;15.70;9.38;;;;;;;;;;5050974;28;20041;-81
2022/11/15 11:17:04;;;;;;;15.80;9.45;;;;;;;;;;5050776;28;20053;-80
2022/11/15 11:19:49;;;;;;;14.75;9.25;;;;;;;;;;5034066;28;20113;-80
2022/11/15 11:22:34;;;;;;;12.57;8.65;;;;;;;;;;5051148;28;20115;-80
2022/11/15 11:25:16;;;;;;;13.38;8.82;;;;;;;;;;5038471;28;20067;-76
2022/11/15 11:27:49;;;;;;;12.93;8.65;;;;;;;;;;5053239;28;20405;-75
2022/11/15 11:30:19;;;;;;;17.17;8.52;;;;;;;;;;5042947;28;20072;-80
2022/11/15 11:33:08;;;;;;;12.32;8.30;;;;;;;;;;5054033;28;20045;-80
2022/11/15 11:35:40;;;;;;;11.52;8.55;;;;;;;;;;5035651;28;20053;-80
2022/11/15 11:38:19;;;;;;;12.82;8.68;;;;;;;;;;5054081;28;20045;-75
2022/11/15 11:41:01;;;;;;;11.65;7.88;;;;;;;;;;5053965;28;20573;-75
2022/11/15 11:43:27;;;;;;;10.55;7.47;;;;;;;;;;5054641;28;20041;-75
2022/11/15 11:45:53;;;;;;;14.00;7.47;;;;;;;;;;5053949;28;20502;-75
2022/11/15 11:48:25;;;;;;;15.82;7.22;;;;;;;;;;5054583;28;20363;-80
2022/11/15 11:50:51;;;;;;;10.43;6.13;;;;;;;;;;5054300;28;20037;-79
2022/11/15 11:53:36;;;;;;;9.93;6.25;;;;;;;;;;5055141;28;20047;-80
2022/11/15 11:56:04;;;;;;;9.02;6.03;;;;;;;;;;5037472;28;20128;-80
2022/11/15 11:58:33;;;;;;;9.48;6.07;;;;;;;;;;5053386;28;20052;-81
2022/11/15 12:01:08;;;;;;;9.98;6.03;;;;;;;;;;5087329;28;20183;-80
2022/11/15 12:03:41;;;;;;;10.77;5.22;;;;;;;;;;5036965;28;20074;-78
2022/11/15 12:06:28;;;;;;;10.27;5.47;;;;;;;;;;5053501;28;20033;-80
2022/11/15 12:08:57;;;;;;;8.88;5.10;;;;;;;;;;5036962;28;20045;-80
2022/11/15 12:11:23;;;;;;;7.40;5.15;;;;;;;;;;5037212;28;20533;-80
2022/11/15 12:13:51;;;;;;;10.98;5.40;;;;;;;;;;5054587;28;20041;-81
2022/11/15 12:16:23;;;;;;;8.57;5.03;;;;;;;;;;5054633;28;20071;-80
2022/11/15 12:18:51;;;;;;;8.60;4.80;;;;;;;;;;5053698;28;20044;-76
2022/11/15 12:21:35;;;;;;;8.02;4.60;;;;;;;;;;5050482;28;20044;-75
2022/11/15 12:24:04;;;;;;;7.22;4.45;;;;;;;;;;5045786;28;20355;-75
2022/11/15 12:26:39;;;;;;;6.15;4.18;;;;;;;;;;5048032;28;20090;-75
2022/11/15 12:29:12;;;;;;;7.30;4.38;;;;;;;;;;5028431;28;20048;-78
2022/11/15 12:31:40;;;;;;;5.88;3.75;;;;;;;;;;5052836;28;20053;-81
2022/11/15 12:34:15;;;;;;;5.32;3.85;;;;;;;;;;5054657;28;20045;-81
2022/11/15 12:36:43;;;;;;;8.48;4.47;;;;;;;;;;5036175;28;20094;-83
2022/11/15 12:39:09;;;;;;;6.28;4.50;;;;;;;;;;5052804;28;20053;-79
2022/11/15 12:41:37;;;;;;;8.35;4.70;;;;;;;;;;5052607;28;20091;-79
2022/11/15 12:44:04;;;;;;;7.57;4.50;;;;;;;;;;5036417;28;20098;-79
2022/11/15 12:46:30;;;;;;;7.97;4.25;;;;;;;;;;5035727;28;20041;-80
2022/11/15 12:48:56;;;;;;;6.68;4.43;;;;;;;;;;5052617;28;20045;-80
2022/11/15 12:51:42;;;;;;;6.80;4.15;;;;;;;;;;5023163;28;20045;-80
2022/11/15 12:54:24;;;;;;;9.00;4.05;;;;;;;;;;5040563;28;20063;-79
2022/11/15 12:57:08;;;;;;;9.60;4.00;;;;;;;;;;5052195;28;20132;-80
2022/11/15 12:59:50;;;;;;;7.30;4.03;;;;;;;;;;5052469;28;20379;-75
2022/11/15 13:02:21;;;;;;;5.75;3.22;;;;;;;;;;5052035;28;20041;-76
2022/11/15 13:04:47;;;;;;;5.57;3.33;;;;;;;;;;5052065;28;20063;-75
2022/11/15 13:07:32;;;;;;;6.35;3.30;;;;;;;;;;5052099;28;20029;-75
2022/11/15 13:09:58;;;;;;;7.82;3.20;;;;;;;;;;5052132;28;20048;-76
2022/11/15 13:12:27;;;;;;;8.35;3.63;;;;;;;;;;5052092;28;20505;-74
2022/11/15 13:15:13;;;;;;;6.03;3.13;;;;;;;;;;5058758;28;20051;-74
2022/11/15 13:17:56;;;;;;;5.70;3.28;;;;;;;;;;5054349;28;20049;-75
2022/11/15 13:20:24;;;;;;;6.70;3.30;;;;;;;;;;5051954;28;20521;-80
2022/11/15 13:23:05;;;;;;;4.88;3.10;;;;;;;;;;5035398;28;20041;-79
2022/11/15 13:25:40;;;;;;;5.80;3.00;;;;;;;;;;5053648;28;20045;-79
2022/11/15 13:28:13;;;;;;;3.95;2.60;;;;;;;;;;5035272;28;20069;-80
2022/11/15 13:30:39;;;;;;;4.95;3.10;;;;;;;;;;5052995;28;20045;-80
2022/11/15 13:33:10;;;;;;;4.63;2.80;;;;;;;;;;5053131;28;20041;-80
2022/11/15 13:35:39;;;;;;;7.80;3.10;;;;;;;;;;5035070;28;20044;-79
2022/11/15 13:38:05;;;;;;;6.78;3.00;;;;;;;;;;5051974;28;20037;-76
2022/11/15 13:40:36;;;;;;;6.03;3.20;;;;;;;;;;5051563;28;20080;-75
2022/11/15 13:43:20;;;;;;;5.05;2.53;;;;;;;;;;5051306;28;20052;-79
2022/11/15 13:46:03;;;;;;;5.05;2.45;;;;;;;;;;5052802;28;20506;-81
2022/11/15 13:48:30;;;;;;;5.07;2.30;;;;;;;;;;5052005;28;20453;-80
2022/11/15 13:50:57;;;;;;;5.97;2.20;;;;;;;;;;5051114;28;20041;-80
2022/11/15 13:53:23;;;;;;;6.15;2.10;;;;;;;;;;5051812;28;20402;-75
2022/11/15 13:55:49;;;;;;;5.25;2.17;;;;;;;;;;5051145;28;20048;-75
2022/11/15 13:58:15;;;;;;;10.68;2.40;;;;;;;;;;5051371;28;20052;-75
2022/11/15 14:00:46;;;;;;;5.47;2.42;;;;;;;;;;5051134;28;20052;-75
2022/11/15 14:03:41;;;;;;;5.95;2.22;;;;;;;;;;5018572;28;20502;-75
2022/11/15 14:06:08;;;;;;;5.60;2.13;;;;;;;;;;5042861;28;20049;-80
2022/11/15 14:08:35;;;;;;;5.10;2.40;;;;;;;;;;5051269;28;20045;-79
2022/11/15 14:11:07;;;;;;;6.00;2.47;;;;;;;;;;5051098;28;20537;-80
2022/11/15 14:13:34;;;;;;;5.35;2.30;;;;;;;;;;5051537;28;20532;-79
2022/11/15 14:16:20;;;;;;;8.20;2.70;;;;;;;;;;5029699;28;20054;-77
2022/11/15 14:18:46;;;;;;;4.00;2.58;;;;;;;;;;5050924;28;20107;-79
2022/11/15 14:21:12;;;;;;;5.57;2.40;;;;;;;;;;5034614;28;20045;-79
2022/11/15 14:23:39;;;;;;;3.67;2.30;;;;;;;;;;5052348;28;20048;-79
2022/11/15 14:26:05;;;;;;;4.20;2.13;;;;;;;;;;5051166;28;20037;-79
2022/11/15 14:28:33;;;;;;;5.63;2.25;;;;;;;;;;5051329;28;20128;-79
2022/11/15 14:30:59;;;;;;;5.50;2.70;;;;;;;;;;5051290;28;20565;-79
2022/11/15 14:33:26;;;;;;;3.35;2.10;;;;;;;;;;5057692;28;20041;-79
2022/11/15 14:35:53;;;;;;;5.63;2.40;;;;;;;;;;5059538;28;20544;-80
2022/11/15 14:38:19;;;;;;;5.03;2.20;;;;;;;;;;5050880;28;20041;-78
2022/11/15 14:40:45;;;;;;;4.60;2.05;;;;;;;;;;5034732;28;20450;-79
2022/11/15 14:43:12;;;;;;;3.95;1.83;;;;;;;;;;5036898;28;20033;-78
2022/11/15 14:45:38;;;;;;;4.60;1.60;;;;;;;;;;5051219;28;20497;-78
2022/11/15 14:48:04;;;;;;;4.03;1.70;;;;;;;;;;5062948;28;20482;-79